X  Sluiten METAR luchtvaart weer gegevens      EHGG Eelde Airport
Temperatuur
11°C Temperatuur
7°C Dauwpunt
77% Vochtigheid



Wind
24 KM/U
15 MPH
7 M/S
13 KTS



290°
WNW
Huidig weer

Lichte Regen, Lichte Motregen Lichte Regen, Lichte Motregen
Luchtdruk 1010.92 (hPa) - 29.85 (inHg)
Zicht 6.2 (mijl) - 10 (km)
Vliegveld
Vliegveld code EHGG

Locatie : Eelde Airport
Afstand: 47 (km)

Metar:
EHGG 221225Z AUTO 29013KT 250V330 9999 -RADZ FEW021/// SCT027/// BKN034/// 11/07 Q1011 NOSIG

Tijd: 22-10-2021 14:25 CEST